createdAt,value
2018-12-16T00:00:26.390Z,-3.10
2018-12-16T00:02:53.979Z,-3.00
2018-12-16T00:05:21.562Z,-3.00
2018-12-16T00:07:49.164Z,-3.00
2018-12-16T00:10:16.741Z,-3.00
2018-12-16T00:12:44.694Z,-2.90
2018-12-16T00:15:12.266Z,-3.00
2018-12-16T00:17:39.859Z,-3.00
2018-12-16T00:20:07.442Z,-3.10
2018-12-16T00:22:36.263Z,-3.10
2018-12-16T00:25:05.278Z,-3.10
2018-12-16T00:27:32.878Z,-3.10
2018-12-16T00:30:00.470Z,-3.10
2018-12-16T00:32:28.035Z,-3.00
2018-12-16T00:34:55.633Z,-2.90
2018-12-16T00:37:23.203Z,-2.90
2018-12-16T00:39:50.806Z,-2.80
2018-12-16T00:42:18.371Z,-2.80
2018-12-16T00:44:45.963Z,-3.00
2018-12-16T00:47:13.538Z,-3.10
2018-12-16T00:49:41.137Z,-3.10
2018-12-16T00:52:08.701Z,-3.00
2018-12-16T00:54:36.306Z,-2.90
2018-12-16T00:57:03.883Z,-3.00
2018-12-16T00:59:31.475Z,-3.20
2018-12-16T01:01:59.051Z,-3.20
2018-12-16T01:04:26.722Z,-3.20
2018-12-16T01:06:54.290Z,-3.00
2018-12-16T01:09:21.968Z,-3.00
2018-12-16T01:11:49.563Z,-3.30
2018-12-16T01:14:17.131Z,-3.40
2018-12-16T01:16:44.722Z,-3.30
2018-12-16T01:19:12.290Z,-3.10
2018-12-16T01:21:39.899Z,-3.10
2018-12-16T01:24:07.467Z,-3.20
2018-12-16T01:26:35.178Z,-3.20
2018-12-16T01:29:02.803Z,-3.20
2018-12-16T01:31:30.595Z,-3.10
2018-12-16T01:33:58.161Z,-3.30
2018-12-16T01:36:25.752Z,-3.30
2018-12-16T01:38:53.327Z,-3.30
2018-12-16T01:41:20.918Z,-3.20
2018-12-16T01:43:48.491Z,-3.10
2018-12-16T01:46:16.095Z,-3.10
2018-12-16T01:48:43.662Z,-3.00
2018-12-16T01:51:11.254Z,-3.10
2018-12-16T01:53:38.830Z,-2.90
2018-12-16T01:56:06.422Z,-2.90
2018-12-16T01:58:34.010Z,-3.10
2018-12-16T02:01:01.587Z,-3.00
2018-12-16T02:03:29.182Z,-3.10
2018-12-16T02:05:56.759Z,-3.20
2018-12-16T02:08:24.355Z,-3.30
2018-12-16T02:10:51.923Z,-3.30
2018-12-16T02:13:19.515Z,-3.40
2018-12-16T02:15:47.086Z,-3.30
2018-12-16T02:18:14.687Z,-3.30
2018-12-16T02:20:42.263Z,-3.40
2018-12-16T02:23:09.853Z,-3.20
2018-12-16T02:25:37.421Z,-3.40
2018-12-16T02:28:05.043Z,-3.20
2018-12-16T02:30:32.606Z,-3.20
2018-12-16T02:33:00.212Z,-3.20
2018-12-16T02:35:27.807Z,-3.30
2018-12-16T02:37:55.380Z,-3.40
2018-12-16T02:40:23.002Z,-3.40
2018-12-16T02:42:50.576Z,-3.40
2018-12-16T02:45:19.385Z,-3.30
2018-12-16T02:47:48.100Z,-3.20
2018-12-16T02:50:15.694Z,-3.30
2018-12-16T02:52:43.267Z,-3.30
2018-12-16T02:55:10.866Z,-3.20
2018-12-16T02:57:38.450Z,-3.10
2018-12-16T03:00:07.790Z,-3.00
2018-12-16T03:02:35.359Z,-3.00
2018-12-16T03:05:03.069Z,-2.90
2018-12-16T03:07:30.647Z,-2.70
2018-12-16T03:09:58.248Z,-2.60
2018-12-16T03:12:25.819Z,-2.60
2018-12-16T03:14:53.431Z,-2.70
2018-12-16T03:17:21.724Z,-2.70
2018-12-16T03:19:49.294Z,-2.80
2018-12-16T03:22:16.904Z,-2.90
2018-12-16T03:24:44.466Z,-2.80
2018-12-16T03:27:12.079Z,-2.90
2018-12-16T03:29:39.660Z,-3.10
2018-12-16T03:32:07.255Z,-3.10
2018-12-16T03:34:34.834Z,-3.00
2018-12-16T03:37:02.443Z,-2.90
2018-12-16T03:39:30.010Z,-2.80
2018-12-16T03:41:57.611Z,-2.70
2018-12-16T03:44:25.182Z,-2.60
2018-12-16T03:46:52.798Z,-2.50
2018-12-16T03:49:20.363Z,-2.70
2018-12-16T03:51:47.965Z,-2.60
2018-12-16T03:54:15.532Z,-2.60
2018-12-16T03:56:43.136Z,-2.70
2018-12-16T03:59:18.071Z,-2.60
2018-12-16T04:01:47.815Z,-2.50
2018-12-16T04:04:15.415Z,-2.80
2018-12-16T04:06:43.373Z,-2.80
2018-12-16T04:09:11.331Z,-2.60
2018-12-16T04:11:38.912Z,-2.70
2018-12-16T04:14:06.509Z,-2.70
2018-12-16T04:16:34.091Z,-2.70
2018-12-16T04:19:01.689Z,-2.70
2018-12-16T04:21:29.258Z,-2.80
2018-12-16T04:23:56.990Z,-3.00
2018-12-16T04:26:24.555Z,-3.00
2018-12-16T04:28:52.158Z,-2.90
2018-12-16T04:31:19.725Z,-2.90
2018-12-16T04:33:47.319Z,-2.80
2018-12-16T04:36:15.599Z,-2.80
2018-12-16T04:38:43.204Z,-2.70
2018-12-16T04:41:10.843Z,-2.70
2018-12-16T04:43:38.435Z,-2.90
2018-12-16T04:46:06.012Z,-3.00
2018-12-16T04:48:33.588Z,-3.20
2018-12-16T04:51:01.207Z,-3.00
2018-12-16T04:53:35.095Z,-2.90
2018-12-16T04:55:58.418Z,-3.00
2018-12-16T04:58:26.075Z,-2.90
2018-12-16T05:00:53.786Z,-2.70
2018-12-16T05:03:21.355Z,-2.90
2018-12-16T05:05:48.942Z,-3.10
2018-12-16T05:08:16.522Z,-3.10
2018-12-16T05:10:44.890Z,-3.00
2018-12-16T05:13:12.474Z,-2.70
2018-12-16T05:15:40.286Z,-2.90
2018-12-16T05:18:07.863Z,-3.00
2018-12-16T05:20:35.463Z,-2.80
2018-12-16T05:23:03.031Z,-3.10
2018-12-16T05:25:30.623Z,-3.00
2018-12-16T05:27:58.193Z,-3.20
2018-12-16T05:30:25.790Z,-3.00
2018-12-16T05:32:53.383Z,-3.10
2018-12-16T05:35:20.952Z,-3.10
2018-12-16T05:37:48.586Z,-3.00
2018-12-16T05:40:16.150Z,-3.00
2018-12-16T05:42:43.739Z,-2.90
2018-12-16T05:45:11.318Z,-3.00
2018-12-16T05:47:38.918Z,-2.90
2018-12-16T05:50:06.823Z,-2.90
2018-12-16T05:52:34.522Z,-2.90
2018-12-16T05:55:02.112Z,-3.00
2018-12-16T05:57:30.358Z,-3.00
2018-12-16T05:59:57.945Z,-2.90
2018-12-16T06:02:25.543Z,-2.80
2018-12-16T06:04:53.128Z,-2.60
2018-12-16T06:07:20.734Z,-2.60
2018-12-16T06:09:48.303Z,-2.80
2018-12-16T06:12:15.898Z,-2.90
2018-12-16T06:14:43.467Z,-2.70
2018-12-16T06:17:11.039Z,-2.70
2018-12-16T06:19:38.812Z,-2.60
2018-12-16T06:22:06.381Z,-2.70
2018-12-16T06:24:33.991Z,-2.70
2018-12-16T06:27:01.560Z,-2.50
2018-12-16T06:29:29.155Z,-2.50
2018-12-16T06:31:56.730Z,-2.70
2018-12-16T06:34:24.317Z,-2.70
2018-12-16T06:36:51.892Z,-2.50
2018-12-16T06:39:19.753Z,-2.50
2018-12-16T06:41:47.334Z,-2.50
2018-12-16T06:44:14.927Z,-2.60
2018-12-16T06:46:42.499Z,-2.50
2018-12-16T06:49:10.110Z,-2.60
2018-12-16T06:52:38.335Z,-2.50
2018-12-16T06:55:05.951Z,-2.20
2018-12-16T06:57:33.518Z,-2.30
2018-12-16T07:00:01.131Z,-2.40
2018-12-16T07:02:28.699Z,-2.40
2018-12-16T07:04:56.289Z,-2.40
2018-12-16T07:07:23.859Z,-2.50
2018-12-16T07:09:51.462Z,-2.50
2018-12-16T07:12:19.037Z,-2.50
2018-12-16T07:14:46.656Z,-2.30
2018-12-16T07:17:14.259Z,-2.10
2018-12-16T07:19:41.945Z,-2.30
2018-12-16T07:22:09.535Z,-2.20
2018-12-16T07:24:37.166Z,-2.30
2018-12-16T07:27:04.938Z,-2.30
2018-12-16T07:29:32.638Z,-2.20
2018-12-16T07:32:00.287Z,-2.00
2018-12-16T07:34:28.527Z,-2.00
2018-12-16T07:36:56.271Z,-2.10
2018-12-16T07:39:23.940Z,-2.20
2018-12-16T07:41:51.774Z,-2.10
2018-12-16T07:44:19.339Z,-2.10
2018-12-16T07:46:47.177Z,-2.00
2018-12-16T07:49:15.383Z,-2.00
2018-12-16T07:51:42.978Z,-1.90
2018-12-16T07:54:16.067Z,-1.80
2018-12-16T07:56:40.203Z,-1.80
2018-12-16T07:59:07.803Z,-1.80
2018-12-16T08:01:36.026Z,-1.60
2018-12-16T08:04:03.803Z,-1.40
2018-12-16T08:06:31.413Z,-1.70
2018-12-16T08:08:59.055Z,-1.80
2018-12-16T08:11:26.703Z,-1.90
2018-12-16T08:13:54.298Z,-2.00
2018-12-16T08:16:21.866Z,-2.00
2018-12-16T08:18:49.466Z,-2.00
2018-12-16T08:21:17.043Z,-1.70
2018-12-16T08:23:44.644Z,-1.60
2018-12-16T08:26:12.225Z,-1.40
2018-12-16T08:28:39.815Z,-1.20
2018-12-16T08:31:07.757Z,-1.40
2018-12-16T08:33:36.579Z,-1.30
2018-12-16T08:36:04.343Z,-1.30
2018-12-16T08:38:31.942Z,-1.60
2018-12-16T08:41:00.351Z,-1.40
2018-12-16T08:43:27.943Z,-1.40
2018-12-16T08:45:56.465Z,-1.20
2018-12-16T08:48:24.035Z,-1.00
2018-12-16T08:50:51.635Z,-0.90
2018-12-16T08:53:19.221Z,-1.00
2018-12-16T08:55:46.827Z,-1.00
2018-12-16T08:58:14.411Z,-1.00
2018-12-16T09:00:42.010Z,-1.00
2018-12-16T09:03:10.322Z,-1.20
2018-12-16T09:05:38.065Z,-1.10
2018-12-16T09:08:06.659Z,-1.10
2018-12-16T09:10:34.527Z,-1.10
2018-12-16T09:13:02.271Z,-1.00
2018-12-16T09:15:29.986Z,-1.00
2018-12-16T09:17:57.551Z,-0.90
2018-12-16T09:20:25.743Z,-1.10
2018-12-16T09:22:53.548Z,-1.00
2018-12-16T09:25:21.148Z,-0.90
2018-12-16T09:27:49.439Z,-1.00
2018-12-16T09:30:17.027Z,-0.80
2018-12-16T09:32:44.623Z,-0.70
2018-12-16T09:35:13.412Z,-0.70
2018-12-16T09:37:42.420Z,-0.60
2018-12-16T09:40:13.373Z,-0.60
2018-12-16T09:42:42.366Z,-0.60
2018-12-16T09:45:17.262Z,-0.50
2018-12-16T09:47:45.287Z,-0.80
2018-12-16T09:50:12.926Z,-1.00
2018-12-16T09:52:41.909Z,-0.90
2018-12-16T09:55:09.491Z,-1.00
2018-12-16T09:57:37.088Z,-1.20
2018-12-16T10:00:06.467Z,-0.90
2018-12-16T10:02:34.062Z,-0.80
2018-12-16T10:05:01.724Z,-1.10
2018-12-16T10:07:29.319Z,-1.20
2018-12-16T10:09:56.887Z,-1.00
2018-12-16T10:12:24.491Z,-1.10
2018-12-16T10:14:52.651Z,-0.80
2018-12-16T10:17:20.247Z,-1.10
2018-12-16T10:19:47.842Z,-0.90
2018-12-16T10:22:15.427Z,-0.90
2018-12-16T10:24:43.021Z,-0.70
2018-12-16T10:27:10.711Z,-0.90
2018-12-16T10:29:38.735Z,-0.80
2018-12-16T10:32:06.414Z,-0.70
2018-12-16T10:34:34.087Z,-0.90
2018-12-16T10:37:01.647Z,-0.80
2018-12-16T10:39:29.322Z,-0.50
2018-12-16T10:41:56.895Z,-0.40
2018-12-16T10:44:24.518Z,-0.40
2018-12-16T10:46:52.099Z,-0.10
2018-12-16T10:49:19.783Z,-0.40
2018-12-16T10:51:47.355Z,-0.50
2018-12-16T10:54:15.092Z,-0.40
2018-12-16T10:56:42.675Z,-0.30
2018-12-16T10:59:10.273Z,-0.30
2018-12-16T11:01:37.855Z,-0.50
2018-12-16T11:04:05.506Z,-0.30
2018-12-16T11:06:33.311Z,-0.10
2018-12-16T11:09:01.034Z,-0.20
2018-12-16T11:11:28.628Z,0.00
2018-12-16T11:13:56.194Z,0.10
2018-12-16T11:16:23.952Z,0.00
2018-12-16T11:18:51.523Z,-0.20
2018-12-16T11:21:19.109Z,0.00
2018-12-16T11:23:53.523Z,0.10
2018-12-16T11:26:16.303Z,0.10
2018-12-16T11:28:43.862Z,0.30
2018-12-16T11:31:11.463Z,0.40
2018-12-16T11:33:39.026Z,0.40
2018-12-16T11:36:06.619Z,0.40
2018-12-16T11:38:34.216Z,0.50
2018-12-16T11:41:01.790Z,0.60
2018-12-16T11:43:29.409Z,0.60
2018-12-16T11:45:56.975Z,0.50
2018-12-16T11:48:24.630Z,0.40
2018-12-16T11:50:52.447Z,0.40
2018-12-16T11:53:20.038Z,0.60
2018-12-16T11:55:47.595Z,0.40
2018-12-16T11:58:15.186Z,0.40
2018-12-16T12:00:43.032Z,0.60
2018-12-16T12:03:10.666Z,0.40
2018-12-16T12:05:38.231Z,0.60
2018-12-16T12:08:05.827Z,0.70
2018-12-16T12:10:33.480Z,0.40
2018-12-16T12:13:01.075Z,0.60
2018-12-16T12:15:29.260Z,0.70
2018-12-16T12:17:56.863Z,0.80
2018-12-16T12:20:24.544Z,0.80
2018-12-16T12:22:52.830Z,0.80
2018-12-16T12:25:20.420Z,0.80
2018-12-16T12:27:48.056Z,0.90
2018-12-16T12:30:15.718Z,0.90
2018-12-16T12:32:43.282Z,1.00
2018-12-16T12:35:10.883Z,1.10
2018-12-16T12:37:38.438Z,1.20
2018-12-16T12:40:06.875Z,1.00
2018-12-16T12:42:34.445Z,1.10
2018-12-16T12:45:02.036Z,1.10
2018-12-16T12:47:29.732Z,1.00
2018-12-16T12:49:57.329Z,1.00
2018-12-16T12:52:24.891Z,1.00
2018-12-16T12:54:52.486Z,1.00
2018-12-16T12:57:20.046Z,1.10
2018-12-16T12:59:47.635Z,1.10
2018-12-16T13:02:15.195Z,1.10
2018-12-16T13:04:42.799Z,0.90
2018-12-16T13:07:10.367Z,0.70
2018-12-16T13:09:37.958Z,0.60
2018-12-16T13:12:05.535Z,0.70
2018-12-16T13:14:33.207Z,0.90
2018-12-16T13:17:00.770Z,0.90
2018-12-16T13:19:29.701Z,1.00
2018-12-16T13:21:57.554Z,1.00
2018-12-16T13:24:25.151Z,1.00
2018-12-16T13:26:53.063Z,0.90
2018-12-16T13:29:20.627Z,0.90
2018-12-16T13:31:48.214Z,1.10
2018-12-16T13:34:15.799Z,1.10
2018-12-16T13:36:43.400Z,1.10
2018-12-16T13:39:10.970Z,0.90
2018-12-16T13:41:38.559Z,0.90
2018-12-16T13:44:06.149Z,1.10
2018-12-16T13:46:33.746Z,1.00
2018-12-16T13:49:01.315Z,1.10
2018-12-16T13:51:29.236Z,1.20
2018-12-16T13:53:56.794Z,1.20
2018-12-16T13:56:24.392Z,1.30
2018-12-16T13:58:51.958Z,1.30
2018-12-16T14:01:19.558Z,1.40
2018-12-16T14:03:47.122Z,1.40
2018-12-16T14:06:14.715Z,1.50
2018-12-16T14:08:42.278Z,1.50
2018-12-16T14:11:09.874Z,1.60
2018-12-16T14:13:37.450Z,1.60
2018-12-16T14:16:05.603Z,1.60
2018-12-16T14:18:33.167Z,1.60
2018-12-16T14:21:00.763Z,1.60
2018-12-16T14:23:28.430Z,1.40
2018-12-16T14:25:56.004Z,1.50
2018-12-16T14:28:23.653Z,1.60
2018-12-16T14:30:51.218Z,1.50
2018-12-16T14:33:18.802Z,1.50
2018-12-16T14:35:46.362Z,1.60
2018-12-16T14:38:14.076Z,1.50
2018-12-16T14:40:41.671Z,1.50
2018-12-16T14:43:09.268Z,1.40
2018-12-16T14:45:37.444Z,1.40
2018-12-16T14:48:05.026Z,1.40
2018-12-16T14:50:32.603Z,1.50
2018-12-16T14:53:00.299Z,1.50
2018-12-16T14:55:27.864Z,1.70
2018-12-16T14:57:55.450Z,1.60
2018-12-16T15:00:23.022Z,1.60
2018-12-16T15:02:50.615Z,1.70
2018-12-16T15:05:18.178Z,1.60
2018-12-16T15:07:45.770Z,1.60
2018-12-16T15:10:13.327Z,1.60
2018-12-16T15:12:41.193Z,1.70
2018-12-16T15:15:09.214Z,1.70
2018-12-16T15:17:42.696Z,1.70
2018-12-16T15:20:06.962Z,1.70
2018-12-16T15:22:35.761Z,1.70
2018-12-16T15:25:04.563Z,1.70
2018-12-16T15:27:32.155Z,1.70
2018-12-16T15:29:59.749Z,1.70
2018-12-16T15:32:27.306Z,1.70
2018-12-16T15:34:54.895Z,1.70
2018-12-16T15:37:22.472Z,1.70
2018-12-16T15:39:50.060Z,1.70
2018-12-16T15:42:17.628Z,1.70
2018-12-16T15:44:45.218Z,1.70
2018-12-16T15:47:12.799Z,1.70
2018-12-16T15:49:40.386Z,1.60
2018-12-16T15:52:07.949Z,1.50
2018-12-16T15:54:35.540Z,1.40
2018-12-16T15:57:03.144Z,1.40
2018-12-16T15:59:30.740Z,1.40
2018-12-16T16:01:58.351Z,1.50
2018-12-16T16:04:26.047Z,1.50
2018-12-16T16:06:53.648Z,1.40
2018-12-16T16:09:21.215Z,1.50
2018-12-16T16:11:48.810Z,1.50
2018-12-16T16:14:16.403Z,1.60
2018-12-16T16:16:44.712Z,1.60
2018-12-16T16:19:12.279Z,1.70
2018-12-16T16:21:39.875Z,1.80
2018-12-16T16:24:07.442Z,1.80
2018-12-16T16:26:35.078Z,1.70
2018-12-16T16:29:02.660Z,1.70
2018-12-16T16:31:30.258Z,1.70
2018-12-16T16:33:57.819Z,1.70
2018-12-16T16:36:25.406Z,1.80
2018-12-16T16:38:52.970Z,1.70
2018-12-16T16:41:20.571Z,1.80
2018-12-16T16:43:48.134Z,1.70
2018-12-16T16:46:20.764Z,1.60
2018-12-16T16:48:50.419Z,1.60
2018-12-16T16:51:18.016Z,1.50
2018-12-16T16:53:45.579Z,1.50
2018-12-16T16:56:13.169Z,1.50
2018-12-16T16:58:40.726Z,1.50
2018-12-16T17:01:08.314Z,1.50
2018-12-16T17:03:35.915Z,1.50
2018-12-16T17:06:03.503Z,1.50
2018-12-16T17:08:31.212Z,1.50
2018-12-16T17:10:59.200Z,1.50
2018-12-16T17:13:26.791Z,1.60
2018-12-16T17:15:54.342Z,1.60
2018-12-16T17:18:21.950Z,1.60
2018-12-16T17:20:49.516Z,1.70
2018-12-16T17:23:17.103Z,1.70
2018-12-16T17:25:48.240Z,1.80
2018-12-16T17:28:14.262Z,1.80
2018-12-16T17:30:41.835Z,1.80
2018-12-16T17:33:09.534Z,1.80
2018-12-16T17:35:37.091Z,1.80
2018-12-16T17:38:04.678Z,1.70
2018-12-16T17:40:32.703Z,1.80
2018-12-16T17:43:00.763Z,1.70
2018-12-16T17:45:28.543Z,1.80
2018-12-16T17:47:57.432Z,1.80
2018-12-16T17:50:25.075Z,1.80
2018-12-16T17:52:52.823Z,1.90
2018-12-16T17:55:20.473Z,1.80
2018-12-16T17:57:48.043Z,1.80
2018-12-16T18:00:15.667Z,1.90
2018-12-16T18:02:43.230Z,1.80
2018-12-16T18:05:10.983Z,1.90
2018-12-16T18:07:38.619Z,1.80
2018-12-16T18:10:06.453Z,1.80
2018-12-16T18:12:34.141Z,1.80
2018-12-16T18:15:01.742Z,1.90
2018-12-16T18:17:29.351Z,1.90
2018-12-16T18:19:57.043Z,1.90
2018-12-16T18:22:24.663Z,1.80
2018-12-16T18:24:52.255Z,1.70
2018-12-16T18:27:19.819Z,1.40
2018-12-16T18:29:47.419Z,1.30
2018-12-16T18:32:15.010Z,1.50
2018-12-16T18:34:42.820Z,1.60
2018-12-16T18:37:11.751Z,1.70
2018-12-16T18:39:39.621Z,1.70
2018-12-16T18:42:07.947Z,1.80
2018-12-16T18:44:35.970Z,1.50
2018-12-16T18:47:03.821Z,1.50
2018-12-16T18:49:33.018Z,1.50
2018-12-16T18:52:01.957Z,1.20
2018-12-16T18:54:29.627Z,1.10
2018-12-16T18:56:57.456Z,1.00
2018-12-16T18:59:25.054Z,1.10
2018-12-16T19:01:53.111Z,1.40
2018-12-16T19:04:22.481Z,1.40
2018-12-16T19:06:50.426Z,1.30
2018-12-16T19:09:18.103Z,1.30
2018-12-16T19:11:46.262Z,1.20
2018-12-16T19:14:13.872Z,0.90
2018-12-16T19:16:41.738Z,0.70
2018-12-16T19:19:10.323Z,0.70
2018-12-16T19:21:38.837Z,0.80
2018-12-16T19:24:06.598Z,0.80
2018-12-16T19:26:34.576Z,0.60
2018-12-16T19:29:02.194Z,0.60
2018-12-16T19:31:29.762Z,0.80
2018-12-16T19:33:57.378Z,0.80
2018-12-16T19:36:24.963Z,0.80
2018-12-16T19:38:52.559Z,0.90
2018-12-16T19:41:20.236Z,0.80
2018-12-16T19:43:47.994Z,0.70
2018-12-16T19:46:15.723Z,0.60
2018-12-16T19:48:43.589Z,0.60
2018-12-16T19:51:11.409Z,0.60
2018-12-16T19:53:40.141Z,0.60
2018-12-16T19:56:07.909Z,0.40
2018-12-16T19:58:35.750Z,0.40
2018-12-16T20:01:03.346Z,0.40
2018-12-16T20:03:31.962Z,0.40
2018-12-16T20:06:05.341Z,0.40
2018-12-16T20:08:33.073Z,0.40
2018-12-16T20:11:00.846Z,0.40
2018-12-16T20:13:28.792Z,0.40
2018-12-16T20:16:01.484Z,0.40
2018-12-16T20:18:26.055Z,0.50
2018-12-16T20:20:53.659Z,0.50
2018-12-16T20:23:21.227Z,0.60
2018-12-16T20:25:48.824Z,0.50
2018-12-16T20:28:16.392Z,0.50
2018-12-16T20:30:43.999Z,0.50
2018-12-16T20:33:11.566Z,0.40
2018-12-16T20:35:39.155Z,0.40
2018-12-16T20:38:06.954Z,0.50
2018-12-16T20:40:34.768Z,0.50
2018-12-16T20:43:02.338Z,0.50
2018-12-16T20:45:29.931Z,0.50
2018-12-16T20:47:57.492Z,0.60
2018-12-16T20:50:25.094Z,0.60
2018-12-16T20:52:54.650Z,0.60
2018-12-16T20:55:22.272Z,0.60
2018-12-16T20:57:49.873Z,0.70
2018-12-16T21:00:18.025Z,0.70
2018-12-16T21:02:45.632Z,0.60
2018-12-16T21:05:13.201Z,0.60
2018-12-16T21:07:40.796Z,0.60
2018-12-16T21:10:08.834Z,0.70
2018-12-16T21:12:42.134Z,0.70
2018-12-16T21:15:15.453Z,0.70
2018-12-16T21:17:48.738Z,0.60
2018-12-16T21:20:16.301Z,0.70
2018-12-16T21:22:44.622Z,0.70
2018-12-16T21:25:12.193Z,0.70
2018-12-16T21:27:39.775Z,0.70
2018-12-16T21:30:09.098Z,0.70
2018-12-16T21:32:36.655Z,0.70
2018-12-16T21:35:05.274Z,0.70
2018-12-16T21:37:33.284Z,0.60
2018-12-16T21:40:01.060Z,0.60
2018-12-16T21:42:28.614Z,0.50
2018-12-16T21:44:56.195Z,0.50
2018-12-16T21:47:23.770Z,0.60
2018-12-16T21:49:51.355Z,0.60
2018-12-16T21:52:19.018Z,0.50
2018-12-16T21:54:46.605Z,0.40
2018-12-16T21:57:14.168Z,0.40
2018-12-16T21:59:42.071Z,0.40
2018-12-16T22:02:09.650Z,0.30
2018-12-16T22:04:37.234Z,0.20
2018-12-16T22:07:04.831Z,0.20
2018-12-16T22:09:32.396Z,0.20
2018-12-16T22:11:59.995Z,0.20
2018-12-16T22:14:27.555Z,0.20
2018-12-16T22:16:55.143Z,0.20
2018-12-16T22:19:22.694Z,0.20
2018-12-16T22:21:50.868Z,0.00
2018-12-16T22:24:18.443Z,0.10
2018-12-16T22:26:46.026Z,0.00
2018-12-16T22:29:13.594Z,-0.20
2018-12-16T22:31:41.183Z,-0.30
2018-12-16T22:34:08.751Z,-0.30
2018-12-16T22:36:36.342Z,-0.30
2018-12-16T22:39:06.441Z,-0.30
2018-12-16T22:41:34.173Z,-0.20
2018-12-16T22:44:01.745Z,-0.20
2018-12-16T22:46:29.653Z,-0.10
2018-12-16T22:48:57.228Z,-0.20
2018-12-16T22:51:24.806Z,-0.30
2018-12-16T22:53:52.401Z,-0.30
2018-12-16T22:56:20.058Z,-0.20
2018-12-16T22:58:54.198Z,-0.20
2018-12-16T23:01:17.251Z,-0.20
2018-12-16T23:03:44.858Z,-0.30
2018-12-16T23:06:12.431Z,-0.40
2018-12-16T23:08:40.035Z,-0.30
2018-12-16T23:11:07.651Z,-0.30
2018-12-16T23:13:35.242Z,-0.20
2018-12-16T23:16:02.810Z,-0.20
2018-12-16T23:18:30.411Z,-0.20
2018-12-16T23:20:57.990Z,-0.20
2018-12-16T23:23:25.590Z,-0.30
2018-12-16T23:25:53.154Z,-0.40
2018-12-16T23:28:20.860Z,-0.50
2018-12-16T23:30:48.446Z,-0.50
2018-12-16T23:33:16.063Z,-0.40
2018-12-16T23:35:44.350Z,-0.40
2018-12-16T23:38:11.913Z,-0.40
2018-12-16T23:40:39.507Z,-0.30
2018-12-16T23:43:07.090Z,-0.40
2018-12-16T23:45:34.674Z,-0.40
2018-12-16T23:48:02.240Z,-0.30
2018-12-16T23:50:29.838Z,-0.30
2018-12-16T23:52:57.403Z,-0.30
2018-12-16T23:55:24.991Z,-0.50
2018-12-16T23:57:52.554Z,-0.50
